Time;durP1;ratioP1;P1;durP2;ratioP2;P2;SDS_P1;SDS_P2;PMS_P1;PMS_P2;Temp;Humidity;BMP_temperature;BMP_pressure;BME280_temperature;BME280_humidity;BME280_pressure;Samples;Min_cycle;Max_cycle;Signal;HPM_P1;HPM_P2
2021/08/21 00:01:40;;;;;;;28.98;4.10;;;;;;;15.39;64.91;100163.78;10442263;28;20052;-62
2021/08/21 00:06:43;;;;;;;6.47;3.22;;;;;;;15.44;64.95;100164.28;10442129;28;20085;-64
2021/08/21 00:11:44;;;;;;;4.47;2.97;;;;;;;15.51;65.00;100167.34;10441951;28;20084;-63
2021/08/21 00:16:46;;;;;;;4.00;2.60;;;;;;;15.60;64.44;100170.09;10443633;28;20128;-63
2021/08/21 00:21:48;;;;;;;5.68;2.42;;;;;;;15.70;64.28;100165.78;10438390;28;20176;-63
2021/08/21 00:26:50;;;;;;;6.10;2.88;;;;;;;15.72;64.04;100169.16;10442874;28;20104;-63
2021/08/21 00:31:53;;;;;;;8.32;3.50;;;;;;;15.75;64.05;100166.28;10441243;28;20067;-63
2021/08/21 00:36:55;;;;;;;4.63;2.70;;;;;;;15.76;64.12;100165.31;10437498;28;20162;-63
2021/08/21 00:41:56;;;;;;;7.07;3.30;;;;;;;15.55;64.25;100168.78;10443166;28;20128;-63
2021/08/21 00:47:05;;;;;;;7.53;3.10;;;;;;;15.62;64.32;100173.47;10442482;28;20646;-63
2021/08/21 00:52:10;;;;;;;4.78;2.80;;;;;;;15.59;64.45;100165.78;10443110;28;20485;-63
2021/08/21 00:57:14;;;;;;;4.57;2.88;;;;;;;15.67;64.35;100163.41;10444177;28;20068;-63
2021/08/21 01:02:15;;;;;;;5.40;3.00;;;;;;;15.64;63.99;100160.16;10443180;28;20073;-63
2021/08/21 01:07:23;;;;;;;4.45;2.50;;;;;;;15.59;64.35;100159.69;10443024;28;20053;-63
2021/08/21 01:12:24;;;;;;;3.75;2.40;;;;;;;15.66;64.12;100156.44;10442309;28;20140;-63
2021/08/21 01:17:26;;;;;;;6.60;2.80;;;;;;;15.69;64.17;100156.22;10443448;28;20540;-63
2021/08/21 01:22:28;;;;;;;6.45;2.75;;;;;;;15.71;63.94;100158.72;10442271;28;20072;-63
2021/08/21 01:27:32;;;;;;;6.25;2.90;;;;;;;15.52;64.39;100151.41;10441630;28;20079;-63
2021/08/21 01:32:34;;;;;;;10.50;3.05;;;;;;;15.41;64.96;100140.78;10442804;28;20124;-63
2021/08/21 01:37:35;;;;;;;70.78;5.82;;;;;;;15.46;65.46;100151.84;10424860;28;20069;-63
2021/08/21 01:42:40;;;;;;;61.75;6.43;;;;;;;15.49;65.49;100148.13;10442041;28;20072;-63
2021/08/21 01:47:44;;;;;;;127.05;8.32;;;;;;;15.51;65.94;100152.34;10449993;28;20102;-63
2021/08/21 01:52:48;;;;;;;14.05;4.15;;;;;;;15.69;65.72;100160.66;10449645;28;20509;-63
2021/08/21 01:57:50;;;;;;;45.22;4.90;;;;;;;15.52;65.84;100153.19;10450266;28;20116;-64
2021/08/21 02:02:53;;;;;;;113.20;7.95;;;;;;;15.53;66.18;100147.78;10452528;28;20037;-63
2021/08/21 02:07:55;;;;;;;40.40;6.55;;;;;;;15.49;66.47;100162.16;10457458;28;20084;-63
2021/08/21 02:12:57;;;;;;;43.47;5.60;;;;;;;15.52;66.07;100143.50;10456124;28;20114;-62
2021/08/21 02:17:59;;;;;;;13.02;5.63;;;;;;;15.49;66.34;100148.13;10452340;28;20080;-63
2021/08/21 02:23:00;;;;;;;15.85;5.25;;;;;;;15.56;66.02;100150.19;10456673;28;20069;-63
2021/08/21 02:28:18;;;;;;;8.15;5.10;;;;;;;15.78;66.01;100146.72;10453150;28;20076;-63
2021/08/21 02:33:20;;;;;;;92.00;9.38;;;;;;;15.80;65.55;100132.47;10456387;28;20056;-63
2021/08/21 02:38:25;;;;;;;17.42;6.10;;;;;;;15.71;65.88;100129.72;10456241;28;20077;-63
2021/08/21 02:43:26;;;;;;;16.65;6.57;;;;;;;15.80;65.64;100132.47;10455387;28;20127;-63
2021/08/21 02:48:28;;;;;;;23.40;7.70;;;;;;;15.96;65.57;100125.03;10456086;28;20119;-63
2021/08/21 02:53:30;;;;;;;26.05;7.50;;;;;;;16.02;65.18;100119.28;10455422;28;20492;-63
2021/08/21 02:58:32;;;;;;;17.70;7.22;;;;;;;15.91;65.22;100119.31;10454111;28;20046;-63
2021/08/21 03:03:34;;;;;;;22.55;9.27;;;;;;;15.59;66.06;100123.59;10450781;28;20041;-63
2021/08/21 03:08:35;;;;;;;25.33;9.85;;;;;;;15.45;66.33;100123.78;10450409;28;20080;-63
2021/08/21 03:13:40;;;;;;;30.25;10.45;;;;;;;15.57;66.40;100125.50;10446700;28;20072;-63
2021/08/21 03:18:41;;;;;;;54.42;7.60;;;;;;;15.46;66.34;100127.25;10448096;28;20091;-63
2021/08/21 03:23:43;;;;;;;62.08;12.13;;;;;;;15.28;66.69;100122.47;10439845;28;20136;-63
2021/08/21 03:28:45;;;;;;;39.00;8.57;;;;;;;15.16;67.03;100125.19;10446858;28;20060;-62
2021/08/21 03:33:47;;;;;;;14.70;7.70;;;;;;;15.12;67.23;100131.63;10445375;28;20140;-64
2021/08/21 03:38:48;;;;;;;15.90;6.93;;;;;;;15.10;67.09;100118.56;10446989;28;20160;-64
2021/08/21 03:43:50;;;;;;;15.30;7.32;;;;;;;15.16;67.26;100127.81;10439033;28;20049;-64
2021/08/21 03:48:52;;;;;;;42.72;8.57;;;;;;;15.23;66.86;100116.69;10450601;28;20119;-62
2021/08/21 03:53:53;;;;;;;26.17;8.43;;;;;;;15.19;67.08;100124.94;10446183;28;20669;-64
2021/08/21 03:58:56;;;;;;;165.23;150.90;;;;;;;15.18;67.03;100124.13;10445697;28;20121;-65
2021/08/21 04:03:58;;;;;;;25.30;6.60;;;;;;;15.05;67.17;100119.88;10445464;28;20125;-64
2021/08/21 04:09:00;;;;;;;30.33;6.88;;;;;;;14.97;67.10;100124.88;10444749;28;20107;-62
2021/08/21 04:14:01;;;;;;;13.38;4.93;;;;;;;15.05;67.14;100117.22;10444973;28;20148;-62
2021/08/21 04:19:03;;;;;;;10.00;5.55;;;;;;;15.27;66.62;100127.81;10420170;28;20079;-62
2021/08/21 04:24:05;;;;;;;8.23;5.18;;;;;;;15.34;66.06;100129.06;10439787;28;20369;-62
2021/08/21 04:29:07;;;;;;;8.07;4.70;;;;;;;15.33;66.22;100132.63;10445328;28;20076;-64
2021/08/21 04:34:09;;;;;;;15.95;6.47;;;;;;;15.24;66.31;100123.66;10445229;28;20135;-64
2021/08/21 04:39:11;;;;;;;14.30;3.53;;;;;;;15.07;66.55;100125.84;10444515;28;20103;-64
2021/08/21 04:44:12;;;;;;;6.57;2.70;;;;;;;15.14;66.58;100140.25;10444606;28;20063;-63
2021/08/21 04:49:14;;;;;;;5.10;2.97;;;;;;;15.26;66.45;100144.59;10444903;28;20069;-64
2021/08/21 04:54:16;;;;;;;7.95;3.33;;;;;;;15.25;65.99;100135.84;10443737;28;20144;-64
2021/08/21 04:59:17;;;;;;;6.25;3.05;;;;;;;15.37;66.01;100148.09;10444831;28;20081;-64
2021/08/21 05:04:19;;;;;;;5.93;2.55;;;;;;;15.54;65.73;100146.84;10444342;28;20123;-64
2021/08/21 05:09:21;;;;;;;5.10;3.25;;;;;;;15.67;65.57;100152.88;10445194;28;20123;-63
2021/08/21 05:14:22;;;;;;;7.28;3.20;;;;;;;15.73;65.08;100148.91;10444120;28;20084;-64
2021/08/21 05:24:29;;;;;;;17.92;3.65;;;;;;;15.52;65.33;100145.28;10450975;28;20132;-64
2021/08/21 05:29:30;;;;;;;8.98;3.00;;;;;;;15.32;65.68;100147.63;10452400;28;20132;-64
2021/08/21 05:34:32;;;;;;;29.17;3.30;;;;;;;15.39;65.83;100145.34;10451362;28;20053;-64
2021/08/21 05:39:34;;;;;;;5.65;2.60;;;;;;;15.34;65.86;100139.59;10450524;28;20045;-64
2021/08/21 05:44:36;;;;;;;11.55;3.03;;;;;;;15.39;65.68;100143.53;10450426;28;20110;-64
2021/08/21 05:49:38;;;;;;;30.17;3.92;;;;;;;15.33;65.67;100145.81;10450768;28;20049;-64
2021/08/21 05:54:39;;;;;;;15.70;3.00;;;;;;;15.39;65.80;100153.25;10442259;28;20061;-64
2021/08/21 05:59:41;;;;;;;22.17;3.15;;;;;;;15.41;65.89;100153.97;10440324;28;20129;-64
2021/08/21 06:04:43;;;;;;;76.10;5.13;;;;;;;15.46;65.96;100156.25;10450255;28;20045;-64
2021/08/21 06:09:44;;;;;;;15.70;3.00;;;;;;;15.51;65.73;100152.34;10450294;28;20061;-64
2021/08/21 06:14:46;;;;;;;28.65;3.40;;;;;;;15.64;65.65;100157.50;10442566;28;20100;-63
2021/08/21 06:19:49;;;;;;;6.63;3.33;;;;;;;15.59;65.57;100160.50;10462078;28;20432;-64
2021/08/21 06:24:52;;;;;;;4.97;2.50;;;;;;;15.82;65.20;100159.56;10436976;28;20365;-63
2021/08/21 06:29:53;;;;;;;4.75;2.65;;;;;;;16.00;65.09;100155.50;10447161;28;20107;-64
2021/08/21 06:34:55;;;;;;;6.50;3.00;;;;;;;16.08;64.66;100160.19;10441139;28;20450;-64
2021/08/21 06:39:58;;;;;;;5.35;3.10;;;;;;;16.23;64.17;100156.31;10440900;28;21308;-63
2021/08/21 06:44:59;;;;;;;4.57;2.90;;;;;;;16.21;64.42;100155.59;10441908;28;20041;-64
2021/08/21 06:50:04;;;;;;;5.63;2.78;;;;;;;16.17;64.18;100157.66;10441673;28;20073;-64
2021/08/21 06:55:06;;;;;;;4.15;2.25;;;;;;;16.47;63.82;100164.13;10440586;28;20486;-65
2021/08/21 07:00:08;;;;;;;4.05;2.45;;;;;;;16.64;63.23;100171.50;10437888;28;20049;-64
2021/08/21 07:05:10;;;;;;;6.03;2.20;;;;;;;16.85;63.15;100156.56;10446744;28;20103;-64
2021/08/21 07:10:12;;;;;;;4.30;2.70;;;;;;;16.88;62.17;100158.94;10444519;28;20528;-64
2021/08/21 07:15:14;;;;;;;3.78;2.33;;;;;;;16.95;62.33;100157.50;10422461;28;20041;-64
2021/08/21 07:20:15;;;;;;;5.38;2.60;;;;;;;17.10;61.89;100161.50;10415019;28;20128;-64
2021/08/21 07:25:17;;;;;;;6.38;2.55;;;;;;;17.37;61.79;100156.59;10424506;28;20480;-64
2021/08/21 07:30:19;;;;;;;5.85;2.83;;;;;;;17.96;60.31;100148.81;10444168;28;20077;-64
2021/08/21 07:35:22;;;;;;;4.50;2.88;;;;;;;18.30;59.48;100142.28;10430727;28;20063;-64
2021/08/21 07:40:24;;;;;;;3.90;2.65;;;;;;;18.80;58.54;100139.56;10420756;28;20403;-64
2021/08/21 07:45:25;;;;;;;3.70;2.50;;;;;;;18.84;57.44;100144.47;10420782;28;20064;-62
2021/08/21 07:50:27;;;;;;;6.82;2.60;;;;;;;18.70;57.76;100133.44;10418415;28;20482;-64
2021/08/21 07:55:29;;;;;;;5.68;4.35;;;;;;;19.07;56.99;100148.56;10431737;28;20095;-64
2021/08/21 08:00:32;;;;;;;4.25;3.10;;;;;;;20.11;55.54;100141.28;10418115;28;20628;-64
2021/08/21 08:05:34;;;;;;;5.78;2.70;;;;;;;20.40;54.24;100137.66;10418236;28;20103;-64
2021/08/21 08:10:36;;;;;;;5.40;2.80;;;;;;;21.16;52.42;100136.25;10430703;28;20555;-64
2021/08/21 08:15:38;;;;;;;5.18;2.88;;;;;;;21.57;51.54;100124.97;10422572;28;20456;-62
2021/08/21 08:20:39;;;;;;;3.65;2.50;;;;;;;21.85;50.41;100121.13;10443825;28;20939;-62
2021/08/21 08:25:41;;;;;;;3.83;2.50;;;;;;;21.99;50.15;100120.50;10416654;28;20124;-60
2021/08/21 08:30:43;;;;;;;6.20;2.90;;;;;;;22.23;49.69;100114.50;10445932;28;20088;-60
2021/08/21 08:35:45;;;;;;;4.75;2.30;;;;;;;21.94;49.76;100120.19;10444139;28;20152;-60
2021/08/21 08:40:47;;;;;;;5.38;3.30;;;;;;;22.23;49.27;100119.81;10442926;28;20152;-60
2021/08/21 08:45:50;;;;;;;5.03;2.90;;;;;;;23.14;48.28;100116.16;10428861;28;20127;-60
2021/08/21 08:50:54;;;;;;;34.90;4.50;;;;;;;23.22;46.52;100113.47;10444627;28;20081;-60
2021/08/21 08:55:56;;;;;;;5.75;3.38;;;;;;;23.75;45.81;100111.09;10450224;28;20099;-60
2021/08/21 09:00:59;;;;;;;8.73;3.30;;;;;;;23.43;45.75;100114.66;10465557;28;20460;-60
2021/08/21 09:06:01;;;;;;;5.60;3.20;;;;;;;23.64;45.75;100119.44;10452974;28;20091;-60
2021/08/21 09:11:22;;;;;;;7.72;3.08;;;;;;;23.78;43.88;100113.41;10452075;28;20115;-60
2021/08/21 09:16:27;;;;;;;5.10;2.50;;;;;;;23.97;45.08;100110.34;10452586;28;20476;-60
2021/08/21 09:21:28;;;;;;;8.40;3.55;;;;;;;24.39;45.15;100104.63;10449916;28;20128;-60
2021/08/21 09:26:31;;;;;;;5.78;2.60;;;;;;;24.24;44.00;100101.06;10451538;28;20124;-60
2021/08/21 09:31:33;;;;;;;13.35;4.20;;;;;;;24.36;44.28;100093.47;10451124;28;20084;-60
2021/08/21 09:36:42;;;;;;;4.63;2.58;;;;;;;25.07;42.31;100099.34;10438847;28;20049;-60
2021/08/21 09:41:58;;;;;;;6.28;2.75;;;;;;;25.03;41.59;100092.69;10459652;28;20124;-59
2021/08/21 09:47:18;;;;;;;3.83;2.20;;;;;;;25.43;41.98;100086.13;10451193;28;20464;-60
2021/08/21 09:52:19;;;;;;;;;;;;;;;24.81;42.20;100072.13;10450185;28;20081;-60
2021/08/21 09:57:21;;;;;;;4.88;2.50;;;;;;;25.09;42.21;100071.38;10424430;28;20470;-60
2021/08/21 10:02:24;;;;;;;4.72;2.60;;;;;;;25.51;41.98;100073.50;10450833;28;20130;-60
2021/08/21 10:07:33;;;;;;;5.05;2.25;;;;;;;25.45;41.23;100076.91;10448914;28;20479;-60
2021/08/21 10:12:36;;;;;;;5.28;2.53;;;;;;;25.45;41.38;100062.69;10437817;28;20131;-60
2021/08/21 10:17:39;;;;;;;4.90;2.20;;;;;;;25.40;41.32;100052.53;10449878;28;20080;-60
2021/08/21 10:22:41;;;;;;;6.22;2.80;;;;;;;25.36;41.37;100056.59;10449646;28;20519;-60
2021/08/21 10:27:54;;;;;;;3.65;2.22;;;;;;;25.41;41.25;100045.31;10429866;28;20132;-60
2021/08/21 10:33:01;;;;;;;8.57;2.50;;;;;;;26.07;40.38;100050.56;10442442;28;20071;-60
2021/08/21 10:38:04;;;;;;;4.53;2.15;;;;;;;26.43;40.22;100034.47;10447814;28;20521;-60
2021/08/21 10:43:07;;;;;;;4.43;2.17;;;;;;;26.56;39.89;100040.00;10442937;28;20041;-60
2021/08/21 10:48:21;;;;;;;5.50;2.55;;;;;;;26.26;38.73;100033.06;10447376;28;20041;-60
2021/08/21 10:53:27;;;;;;;3.42;2.20;;;;;;;26.01;39.25;100031.72;10447166;28;20072;-61
2021/08/21 10:58:32;;;;;;;3.13;2.10;;;;;;;25.79;39.88;100020.91;10450192;28;20132;-60
2021/08/21 11:03:33;;;;;;;4.18;2.42;;;;;;;25.50;40.36;100022.81;10445094;28;20045;-61
2021/08/21 11:08:35;;;;;;;4.28;2.20;;;;;;;25.54;41.81;100016.06;10445292;28;20085;-60
2021/08/21 11:13:49;;;;;;;6.55;2.50;;;;;;;25.52;39.65;100007.38;10445107;28;20048;-60
2021/08/21 11:18:53;;;;;;;4.60;2.38;;;;;;;25.95;40.50;99994.94;10433752;28;20053;-60
2021/08/21 11:23:55;;;;;;;3.90;2.08;;;;;;;26.35;39.86;99991.69;10440940;28;20079;-61
2021/08/21 11:29:08;;;;;;;5.63;2.47;;;;;;;26.38;38.46;99997.50;10456839;28;20948;-60
2021/08/21 11:34:10;;;;;;;5.15;2.42;;;;;;;26.20;39.11;99985.56;10440538;28;20140;-61
2021/08/21 11:39:12;;;;;;;4.28;2.30;;;;;;;26.60;38.96;99982.25;10443123;28;20687;-61
2021/08/21 11:44:14;;;;;;;4.07;2.72;;;;;;;26.87;37.60;99983.31;10443830;28;20528;-61
2021/08/21 11:49:15;;;;;;;4.35;2.47;;;;;;;26.62;38.27;99974.84;10443785;28;20140;-61
2021/08/21 11:54:17;;;;;;;5.07;2.50;;;;;;;26.79;36.74;99970.88;10454893;28;20509;-61
2021/08/21 11:59:22;;;;;;;4.00;2.50;;;;;;;26.70;36.12;99966.66;10437428;28;20107;-61
2021/08/21 12:04:24;;;;;;;4.15;2.28;;;;;;;26.82;36.26;99975.00;10423173;28;20052;-61
2021/08/21 12:09:26;;;;;;;4.43;2.70;;;;;;;26.95;35.14;99969.72;10434127;28;20099;-61
2021/08/21 12:14:28;;;;;;;5.47;2.20;;;;;;;26.84;35.01;99968.41;10443590;28;20106;-61
2021/08/21 12:19:34;;;;;;;3.78;2.28;;;;;;;26.92;34.98;99967.44;10445848;28;20053;-61
2021/08/21 12:24:50;;;;;;;3.33;2.15;;;;;;;26.70;34.80;99966.66;10440719;28;20574;-61
2021/08/21 12:30:05;;;;;;;5.60;2.55;;;;;;;26.26;34.16;99966.03;10439089;28;20548;-61
2021/08/21 12:35:09;;;;;;;5.10;2.67;;;;;;;26.60;35.75;99961.63;10423227;28;20080;-61
2021/08/21 12:40:13;;;;;;;5.63;2.28;;;;;;;26.82;34.26;99946.31;10442166;28;20120;-61
2021/08/21 12:45:23;;;;;;;4.70;2.67;;;;;;;26.82;34.38;99949.00;10443556;28;20080;-61
2021/08/21 12:50:25;;;;;;;3.65;2.40;;;;;;;27.23;34.66;99933.81;10444375;28;20528;-61
2021/08/21 12:55:27;;;;;;;4.00;2.45;;;;;;;27.18;34.01;99928.19;10444976;28;20141;-61
2021/08/21 13:00:29;;;;;;;3.80;2.33;;;;;;;27.48;33.39;99926.88;10440303;28;20549;-61
2021/08/21 13:05:30;;;;;;;4.50;2.42;;;;;;;27.31;33.56;99927.44;10431645;28;20049;-61
2021/08/21 13:10:33;;;;;;;3.90;2.50;;;;;;;27.38;34.71;99918.38;10435949;28;20049;-61
2021/08/21 13:15:35;;;;;;;5.28;2.47;;;;;;;27.59;32.25;99919.28;10424191;28;20053;-61
2021/08/21 13:20:36;;;;;;;5.40;2.42;;;;;;;27.46;32.86;99915.50;10443261;28;20051;-61
2021/08/21 13:25:39;;;;;;;4.47;2.45;;;;;;;27.46;33.84;99910.13;10416419;28;20159;-61
2021/08/21 13:30:41;;;;;;;4.18;2.42;;;;;;;27.68;32.56;99900.09;10432374;28;20054;-61
2021/08/21 13:35:43;;;;;;;3.55;2.28;;;;;;;27.87;33.16;99895.84;10433344;28;20077;-62
2021/08/21 13:40:45;;;;;;;4.00;2.40;;;;;;;27.49;32.59;99895.47;10447414;28;20136;-61
2021/08/21 13:45:46;;;;;;;3.65;2.45;;;;;;;27.34;33.57;99890.25;10451144;28;20495;-62
2021/08/21 13:50:48;;;;;;;3.92;2.65;;;;;;;27.41;34.00;99890.28;10451176;28;20148;-62
2021/08/21 13:55:50;;;;;;;3.50;2.28;;;;;;;27.39;33.97;99882.44;10447225;28;20489;-61
2021/08/21 14:00:52;;;;;;;4.95;2.47;;;;;;;27.37;33.86;99879.13;10449081;28;20927;-62
2021/08/21 14:05:54;;;;;;;3.15;2.20;;;;;;;27.52;33.94;99871.72;10449599;28;20102;-62
2021/08/21 14:10:56;;;;;;;4.38;2.53;;;;;;;27.59;33.93;99879.81;10439322;28;20132;-61
2021/08/21 14:15:58;;;;;;;6.05;2.60;;;;;;;27.69;33.08;99863.31;10439148;28;20045;-61
2021/08/21 14:21:00;;;;;;;4.10;2.50;;;;;;;27.90;33.46;99860.47;10447241;28;20220;-61
2021/08/21 14:26:02;;;;;;;5.10;2.40;;;;;;;27.97;32.98;99851.38;10445246;28;20473;-62
2021/08/21 14:31:06;;;;;;;4.22;2.72;;;;;;;28.03;32.36;99852.44;10445571;28;20143;-62
2021/08/21 14:36:08;;;;;;;6.75;2.45;;;;;;;28.32;32.96;99860.09;10425504;28;20503;-61
2021/08/21 14:41:09;;;;;;;4.38;2.53;;;;;;;28.38;31.80;99856.59;10445338;28;20149;-61
2021/08/21 14:46:12;;;;;;;4.65;2.63;;;;;;;28.07;32.21;99856.38;10447132;28;20075;-61
2021/08/21 14:51:14;;;;;;;4.68;2.65;;;;;;;28.30;32.58;99859.47;10446551;28;20073;-61
2021/08/21 14:56:17;;;;;;;12.57;3.50;;;;;;;28.30;32.91;99858.69;10430603;28;20095;-62
2021/08/21 15:01:19;;;;;;;6.47;2.90;;;;;;;28.07;32.99;99862.56;10448559;28;20199;-62
2021/08/21 15:06:22;;;;;;;4.60;2.80;;;;;;;28.09;33.21;99859.66;10448836;28;20049;-63
2021/08/21 15:11:24;;;;;;;4.78;2.83;;;;;;;27.88;32.95;99859.84;10447670;28;20091;-62
2021/08/21 15:16:26;;;;;;;6.35;3.03;;;;;;;28.01;34.32;99862.56;10440193;28;20041;-62
2021/08/21 15:21:27;;;;;;;5.97;3.00;;;;;;;28.04;33.96;99852.22;10426564;28;20076;-62
2021/08/21 15:26:29;;;;;;;5.40;3.25;;;;;;;28.11;32.93;99861.13;10447623;28;20577;-62
2021/08/21 15:31:34;;;;;;;6.15;3.05;;;;;;;27.92;33.60;99845.81;10447654;28;20124;-62
2021/08/21 15:36:40;;;;;;;9.73;3.25;;;;;;;27.80;35.11;99841.22;10448119;28;20136;-62
2021/08/21 15:41:42;;;;;;;5.13;3.08;;;;;;;27.58;34.58;99845.09;10438582;28;20087;-62
2021/08/21 15:46:44;;;;;;;4.28;3.10;;;;;;;27.52;35.52;99842.16;10446837;28;20076;-63
2021/08/21 15:51:46;;;;;;;6.85;3.42;;;;;;;27.52;35.43;99834.09;10433248;28;20467;-63
2021/08/21 15:56:49;;;;;;;7.72;3.30;;;;;;;27.67;35.44;99835.81;10439677;28;20053;-63
2021/08/21 16:01:51;;;;;;;6.45;3.75;;;;;;;27.67;36.43;99828.56;10446333;28;20110;-63
2021/08/21 16:06:53;;;;;;;6.25;3.30;;;;;;;27.72;37.23;99828.81;10426035;28;20531;-63
2021/08/21 16:11:54;;;;;;;5.75;3.28;;;;;;;27.59;36.93;99826.06;10445486;28;20485;-62
2021/08/21 16:16:56;;;;;;;5.50;2.85;;;;;;;27.53;35.92;99824.19;10445195;28;20041;-62
2021/08/21 16:21:58;;;;;;;6.43;3.30;;;;;;;27.41;36.11;99813.22;10445454;28;20049;-62
2021/08/21 16:27:00;;;;;;;7.35;2.92;;;;;;;27.21;36.63;99809.66;10445131;28;20411;-62
2021/08/21 16:32:02;;;;;;;5.90;2.20;;;;;;;27.05;36.94;99796.56;10438699;28;20136;-62
2021/08/21 16:37:04;;;;;;;4.22;2.60;;;;;;;26.92;37.91;99803.69;10436273;28;20095;-62
2021/08/21 16:42:06;;;;;;;4.50;2.80;;;;;;;26.89;38.18;99788.84;10445937;28;20048;-62
2021/08/21 16:47:09;;;;;;;6.22;2.83;;;;;;;26.81;38.60;99789.03;10445807;28;20123;-62
2021/08/21 16:52:12;;;;;;;6.97;3.10;;;;;;;26.68;40.50;99794.31;10423178;28;20101;-62
2021/08/21 16:57:14;;;;;;;4.63;2.85;;;;;;;26.54;40.93;99785.34;10445250;28;20136;-62
2021/08/21 17:02:16;;;;;;;6.85;2.53;;;;;;;26.38;41.52;99791.03;10443775;28;20080;-63
2021/08/21 17:07:17;;;;;;;5.22;3.15;;;;;;;26.18;43.39;99791.91;10439285;28;20060;-62
2021/08/21 17:12:19;;;;;;;4.70;2.92;;;;;;;26.13;44.16;99791.66;10444921;28;20073;-62
2021/08/21 17:17:21;;;;;;;5.63;3.13;;;;;;;26.06;43.33;99791.59;10450983;28;20132;-62
2021/08/21 17:22:23;;;;;;;5.90;3.47;;;;;;;25.96;43.09;99792.97;10450648;28;20120;-62
2021/08/21 17:27:25;;;;;;;6.47;3.13;;;;;;;25.75;44.23;99791.09;10476350;28;20132;-62
2021/08/21 17:32:26;;;;;;;5.05;3.60;;;;;;;25.61;45.42;99803.53;10449321;28;20088;-62
2021/08/21 17:37:28;;;;;;;10.25;3.28;;;;;;;25.37;45.13;99806.56;10450569;28;20136;-62
2021/08/21 17:42:30;;;;;;;6.40;3.50;;;;;;;25.17;45.50;99810.00;10436545;28;20087;-62
2021/08/21 17:47:32;;;;;;;6.00;3.40;;;;;;;25.07;45.46;99803.13;10450643;28;20123;-62
2021/08/21 17:52:34;;;;;;;4.50;3.00;;;;;;;24.92;45.89;99807.66;10444528;28;20041;-62
2021/08/21 17:57:35;;;;;;;6.10;4.38;;;;;;;24.78;46.17;99813.00;10445256;28;20092;-63
2021/08/21 18:02:37;;;;;;;6.85;4.38;;;;;;;24.69;46.68;99819.44;10451541;28;20084;-63
2021/08/21 18:07:40;;;;;;;8.10;4.38;;;;;;;24.46;47.48;99821.38;10446148;28;20593;-62
2021/08/21 18:12:42;;;;;;;6.47;4.68;;;;;;;24.16;47.96;99821.31;10462328;28;20568;-62
2021/08/21 18:17:44;;;;;;;7.10;4.50;;;;;;;24.08;48.52;99821.38;10449001;28;20135;-63
2021/08/21 18:22:48;;;;;;;10.45;4.40;;;;;;;23.95;48.74;99823.81;10436611;28;20129;-62
2021/08/21 18:27:50;;;;;;;5.88;3.80;;;;;;;23.77;49.34;99830.47;10409070;28;20080;-62
2021/08/21 18:32:56;;;;;;;6.10;3.85;;;;;;;23.62;49.67;99832.25;10446971;28;20053;-62
2021/08/21 18:37:58;;;;;;;7.25;4.50;;;;;;;23.31;50.66;99826.91;10445099;28;20140;-61
2021/08/21 18:43:00;;;;;;;6.28;4.00;;;;;;;23.12;51.02;99824.69;10445404;28;20111;-62
2021/08/21 18:48:02;;;;;;;7.55;3.63;;;;;;;23.06;51.41;99833.38;10446417;28;20128;-62
2021/08/21 18:53:04;;;;;;;6.55;3.80;;;;;;;22.93;51.72;99835.75;10445667;28;20123;-66
2021/08/21 18:58:06;;;;;;;7.45;3.83;;;;;;;22.79;52.06;99840.00;10443036;28;20053;-66
2021/08/21 19:03:08;;;;;;;5.55;3.72;;;;;;;22.53;52.75;99842.03;10446722;28;20509;-66
2021/08/21 19:08:10;;;;;;;7.63;3.78;;;;;;;22.47;52.97;99835.56;10446092;28;20111;-66
2021/08/21 19:13:11;;;;;;;6.32;3.72;;;;;;;22.38;53.34;99847.22;10437733;28;20087;-66
2021/08/21 19:18:13;;;;;;;5.70;3.88;;;;;;;22.25;53.64;99843.41;10436338;28;20088;-67
2021/08/21 19:23:15;;;;;;;6.35;3.70;;;;;;;22.13;54.08;99848.22;10448116;28;20127;-66
2021/08/21 19:28:19;;;;;;;5.00;3.60;;;;;;;22.01;54.34;99841.53;10435262;28;20497;-67
2021/08/21 19:33:21;;;;;;;8.57;3.92;;;;;;;21.90;54.10;99842.69;10425622;28;20470;-67
2021/08/21 19:38:23;;;;;;;7.50;4.05;;;;;;;21.84;54.59;99838.03;10437968;28;20056;-66
2021/08/21 19:43:25;;;;;;;5.72;4.45;;;;;;;21.66;54.76;99839.22;10423667;28;20069;-66
2021/08/21 19:48:27;;;;;;;8.48;4.30;;;;;;;21.38;55.78;99845.78;10421505;28;20045;-66
2021/08/21 19:53:29;;;;;;;7.13;4.05;;;;;;;21.32;55.68;99851.75;10445517;28;20084;-66
2021/08/21 19:58:31;;;;;;;7.93;4.55;;;;;;;21.25;55.78;99843.59;10412896;28;20139;-67
2021/08/21 20:03:33;;;;;;;9.20;4.30;;;;;;;20.94;56.33;99835.31;10442078;28;20106;-67
2021/08/21 20:08:35;;;;;;;7.65;4.53;;;;;;;20.56;57.41;99833.09;10445638;28;20072;-67
2021/08/21 20:13:37;;;;;;;9.45;4.30;;;;;;;20.65;57.41;99818.91;10427314;28;20239;-67
2021/08/21 20:18:39;;;;;;;7.18;4.10;;;;;;;20.67;57.38;99821.38;10444962;28;20055;-68
2021/08/21 20:23:42;;;;;;;6.18;4.10;;;;;;;20.67;57.24;99818.72;10431898;28;20045;-69
2021/08/21 20:28:44;;;;;;;5.85;4.32;;;;;;;20.68;57.55;99815.91;10444199;28;20458;-67
2021/08/21 20:33:49;;;;;;;7.80;5.40;;;;;;;20.56;57.36;99821.66;10439996;28;20408;-67
2021/08/21 20:38:50;;;;;;;7.63;5.78;;;;;;;20.13;58.49;99814.56;10459516;28;20128;-67
2021/08/21 20:43:53;;;;;;;9.05;4.82;;;;;;;20.17;58.64;99819.38;10443661;28;20049;-67
2021/08/21 20:48:55;;;;;;;12.13;4.88;;;;;;;20.31;58.20;99811.84;10443607;28;20478;-67
2021/08/21 20:53:57;;;;;;;6.20;4.82;;;;;;;20.36;58.20;99799.75;10442300;28;20044;-67
2021/08/21 20:58:58;;;;;;;9.00;4.47;;;;;;;20.37;57.92;99801.44;10441545;28;20143;-67
2021/08/21 21:04:00;;;;;;;10.40;5.05;;;;;;;20.00;58.76;99804.34;10443127;28;20076;-67
2021/08/21 21:09:02;;;;;;;6.32;4.35;;;;;;;20.10;58.82;99814.88;10443899;28;20079;-67
2021/08/21 21:14:04;;;;;;;6.63;4.97;;;;;;;20.16;58.21;99795.66;10440122;28;20081;-67
2021/08/21 21:19:09;;;;;;;7.53;4.80;;;;;;;20.05;58.90;99811.84;10419762;28;20107;-67
2021/08/21 21:24:11;;;;;;;8.32;4.80;;;;;;;20.05;58.50;99823.28;10423863;28;20055;-67
2021/08/21 21:29:34;;;;;;;9.43;4.72;;;;;;;20.08;58.93;99820.34;10440717;28;20053;-67
2021/08/21 21:34:38;;;;;;;8.63;4.60;;;;;;;20.23;58.23;99810.78;10418340;28;20486;-67
2021/08/21 21:39:39;;;;;;;9.73;4.90;;;;;;;20.25;58.27;99823.94;10443196;28;20559;-68
2021/08/21 21:44:42;;;;;;;11.32;5.32;;;;;;;20.29;58.10;99815.47;10437492;28;20083;-67
2021/08/21 21:49:43;;;;;;;11.63;5.03;;;;;;;20.09;59.58;99813.22;10441272;28;20052;-67
2021/08/21 21:54:45;;;;;;;11.93;5.30;;;;;;;20.10;58.84;99797.13;10430781;28;20045;-67
2021/08/21 21:59:47;;;;;;;6.80;4.60;;;;;;;20.07;59.50;99810.69;10441800;28;20076;-67
2021/08/21 22:04:49;;;;;;;7.82;4.90;;;;;;;20.12;58.90;99818.19;10432784;28;20160;-67
2021/08/21 22:09:50;;;;;;;8.50;5.00;;;;;;;20.18;59.20;99828.19;10440824;28;20454;-67
2021/08/21 22:14:52;;;;;;;8.90;4.32;;;;;;;20.13;58.96;99833.97;10438039;28;20473;-67
2021/08/21 22:19:54;;;;;;;8.10;4.40;;;;;;;20.04;58.95;99840.22;10448905;28;20442;-67
2021/08/21 22:24:55;;;;;;;8.32;4.57;;;;;;;19.54;59.80;99833.78;10448460;28;20164;-67
2021/08/21 22:29:57;;;;;;;9.80;5.30;;;;;;;19.60;60.30;99821.72;10446995;28;20140;-67
2021/08/21 22:34:59;;;;;;;7.43;4.88;;;;;;;19.54;60.34;99817.00;10445191;28;20123;-68
2021/08/21 22:40:03;;;;;;;12.82;5.82;;;;;;;19.44;61.39;99802.00;10445691;28;20402;-67
2021/08/21 22:45:05;;;;;;;10.25;5.10;;;;;;;19.44;61.80;99799.34;10446754;28;20080;-67
2021/08/21 22:50:07;;;;;;;12.40;5.70;;;;;;;19.62;62.26;99790.56;10447019;28;20124;-67
2021/08/21 22:55:10;;;;;;;11.60;5.43;;;;;;;19.79;62.26;99795.84;10446622;28;20128;-67
2021/08/21 23:00:13;;;;;;;11.90;5.97;;;;;;;19.88;62.03;99783.50;10446769;28;20515;-67
2021/08/21 23:05:16;;;;;;;9.90;6.13;;;;;;;19.78;62.44;99794.19;10446056;28;20056;-67
2021/08/21 23:10:17;;;;;;;9.65;5.45;;;;;;;19.77;62.42;99778.41;10444541;28;20132;-67
2021/08/21 23:15:19;;;;;;;11.98;5.97;;;;;;;19.68;62.24;99774.03;10422832;28;20081;-67
2021/08/21 23:20:21;;;;;;;11.35;7.15;;;;;;;19.45;63.08;99752.44;10428348;28;20124;-67